Time;durP1;ratioP1;P1;durP2;ratioP2;P2;SDS_P1;SDS_P2;PMS_P1;PMS_P2;Temp;Humidity;BMP_temperature;BMP_pressure;BME280_temperature;BME280_humidity;BME280_pressure;Samples;Min_cycle;Max_cycle;Signal;HPM_P1;HPM_P2
2022/02/04 00:28:13;;;;;;;55.80;31.85;;;76.90;2227.20;;;;;;5074555;28;20032;-72
2022/02/04 00:30:44;;;;;;;54.38;32.42;;;76.90;2227.20;;;;;;5080239;28;20157;-72
2022/02/04 00:33:12;;;;;;;51.20;28.73;;;76.90;2227.20;;;;;;5082154;28;20027;-71
2022/02/04 00:38:31;;;;;;;53.78;33.03;;;76.90;2227.20;;;;;;5073563;28;20143;-73
2022/02/04 00:40:59;;;;;;;56.25;32.53;;;76.90;2227.20;;;;;;5074215;28;20028;-73
2022/02/04 00:43:25;;;;;;;57.97;34.15;;;76.90;2227.20;;;;;;5070627;28;20039;-74
2022/02/04 00:46:02;;;;;;;65.22;35.55;;;76.90;2227.20;;;;;;5070603;28;20028;-72
2022/02/04 01:28:22;;;;;;;113.22;61.28;;;51.80;2227.20;;;;;;5071901;28;20039;-72
2022/02/04 01:30:48;;;;;;;109.53;59.72;;;51.70;2227.20;;;;;;5070664;28;20024;-72
2022/02/04 01:33:14;;;;;;;100.38;59.08;;;51.70;2227.20;;;;;;5070445;28;20036;-72
2022/02/04 01:35:40;;;;;;;111.68;61.50;;;51.70;2227.20;;;;;;5071455;28;20495;-71
2022/02/04 01:38:07;;;;;;;97.85;55.97;;;51.70;2227.20;;;;;;5070545;28;20028;-72
2022/02/04 01:40:33;;;;;;;98.05;56.33;;;51.70;2227.20;;;;;;5071764;28;20399;-72
2022/02/04 01:42:59;;;;;;;90.82;53.92;;;51.80;2227.20;;;;;;5072058;28;20024;-72
2022/02/04 01:45:24;;;;;;;87.95;49.38;;;51.70;2227.20;;;;;;5071580;28;20029;-72
2022/02/04 01:47:56;;;;;;;92.88;51.38;;;51.60;2227.20;;;;;;5071509;28;20025;-72
2022/02/04 01:50:29;;;;;;;76.03;47.05;;;51.60;2227.20;;;;;;5070426;28;20032;-72
2022/02/04 01:52:57;;;;;;;80.55;48.30;;;51.60;2227.20;;;;;;5071625;28;20020;-72
2022/02/04 01:55:23;;;;;;;80.97;50.15;;;51.60;2227.20;;;;;;5071642;28;20111;-72
2022/02/04 01:57:49;;;;;;;89.43;50.45;;;51.60;2227.20;;;;;;5071594;28;20033;-72
2022/02/04 02:00:15;;;;;;;77.28;45.33;;;51.60;2227.20;;;;;;5071776;28;20486;-72
2022/02/04 02:02:41;;;;;;;76.97;45.60;;;51.60;2227.20;;;;;;5072958;28;20497;-72
2022/02/04 02:05:07;;;;;;;66.95;41.42;;;51.60;2227.20;;;;;;5073764;28;20021;-72
2022/02/04 02:07:40;;;;;;;61.72;38.40;;;51.50;2227.20;;;;;;5073712;28;20421;-72
2022/02/04 02:10:10;;;;;;;62.80;39.92;;;51.50;2227.20;;;;;;5074946;28;20021;-73
2022/02/04 02:12:55;;;;;;;64.95;36.15;;;51.50;2227.20;;;;;;5073840;28;20027;-72
2022/02/04 02:35:04;;;;;;;54.00;31.05;;;51.30;2227.20;;;;;;5074606;28;20492;-72
2022/02/04 02:43:02;;;;;;;58.03;35.53;;;51.30;2227.20;;;;;;5074536;28;20066;-72
2022/02/04 02:52:47;;;;;;;53.83;36.88;;;51.40;2227.20;;;;;;5072333;28;20021;-72
2022/02/04 03:01:00;;;;;;;66.82;40.30;;;51.40;2227.20;;;;;;5074255;28;20032;-72
2022/02/04 03:03:30;;;;;;;61.95;37.92;;;51.30;2227.20;;;;;;5055417;28;20028;-72
2022/02/04 03:05:56;;;;;;;72.45;40.42;;;51.30;2227.20;;;;;;5073248;28;20025;-72
2022/02/04 03:08:21;;;;;;;65.25;38.58;;;51.30;2227.20;;;;;;5072199;28;20037;-72
2022/02/04 03:10:54;;;;;;;66.88;40.78;;;51.30;2227.20;;;;;;5072711;28;20074;-73
2022/02/04 03:13:21;;;;;;;77.78;44.47;;;51.20;2227.20;;;;;;5071954;28;20502;-73
2022/02/04 03:15:55;;;;;;;71.50;44.08;;;51.20;2227.20;;;;;;5073936;28;20032;-72
2022/02/04 03:18:23;;;;;;;66.32;40.90;;;51.20;2227.20;;;;;;5072267;28;20024;-72
2022/02/04 03:20:52;;;;;;;72.05;41.88;;;51.20;2227.20;;;;;;5072384;28;20455;-73
2022/02/04 03:23:20;;;;;;;68.18;39.75;;;51.20;2227.20;;;;;;5072483;28;20036;-73
2022/02/04 03:25:51;;;;;;;62.00;40.08;;;51.20;2227.20;;;;;;5071960;28;20044;-73
2022/02/04 03:28:23;;;;;;;72.40;42.58;;;51.20;2227.20;;;;;;5072165;28;20029;-72
2022/02/04 03:30:51;;;;;;;69.90;43.58;;;51.20;2227.20;;;;;;5072018;28;20024;-73
2022/02/04 03:33:19;;;;;;;74.43;46.22;;;51.20;2227.20;;;;;;5073161;28;20047;-72
2022/02/04 03:35:45;;;;;;;76.70;43.70;;;51.20;2227.20;;;;;;5072094;28;20023;-73
2022/02/04 03:38:11;;;;;;;86.32;46.33;;;51.20;2227.20;;;;;;5072993;28;20028;-72
2022/02/04 03:40:37;;;;;;;69.53;44.83;;;51.20;2227.20;;;;;;5071178;28;20123;-73
2022/02/04 03:43:03;;;;;;;74.85;44.67;;;51.20;2227.20;;;;;;5070918;28;20025;-72
2022/02/04 03:45:28;;;;;;;78.15;46.22;;;51.20;2227.20;;;;;;5072464;28;20036;-72
2022/02/04 03:47:54;;;;;;;67.45;41.90;;;51.20;2227.20;;;;;;5072192;28;20090;-73
2022/02/04 03:50:20;;;;;;;68.35;39.67;;;51.20;2227.20;;;;;;5072594;28;20352;-73
2022/02/04 03:52:46;;;;;;;63.40;38.05;;;51.20;2227.20;;;;;;5070885;28;20460;-73
2022/02/04 03:55:12;;;;;;;68.35;41.72;;;51.20;2227.20;;;;;;5072466;28;20111;-73
2022/02/04 03:57:38;;;;;;;69.00;40.80;;;51.20;2227.20;;;;;;5072367;28;20035;-74
2022/02/04 04:00:07;;;;;;;64.15;39.42;;;51.20;2227.20;;;;;;5071010;28;20040;-72
2022/02/04 04:02:33;;;;;;;79.43;40.58;;;51.20;2227.20;;;;;;5072872;28;20024;-72
2022/02/04 04:04:58;;;;;;;65.40;40.83;;;51.20;2227.20;;;;;;5072640;28;20036;-73
2022/02/04 04:07:24;;;;;;;63.80;39.10;;;51.30;2227.20;;;;;;5071577;28;20531;-73
2022/02/04 04:09:56;;;;;;;64.30;41.00;;;51.20;2227.20;;;;;;5071326;28;20028;-72
2022/02/04 04:12:24;;;;;;;70.72;40.95;;;51.30;2227.20;;;;;;5073564;28;20020;-72
2022/02/04 04:14:53;;;;;;;65.60;41.22;;;51.20;2227.20;;;;;;5071495;28;20077;-72
2022/02/04 04:17:19;;;;;;;63.50;39.15;;;51.20;2227.20;;;;;;5071410;28;20031;-72
2022/02/04 04:19:45;;;;;;;64.05;40.00;;;51.20;2227.20;;;;;;5071313;28;20028;-72
2022/02/04 04:22:11;;;;;;;73.57;41.63;;;51.30;2227.20;;;;;;5070736;28;20039;-72
2022/02/04 04:24:36;;;;;;;72.05;42.03;;;51.30;2227.20;;;;;;5070314;28;20084;-71
2022/02/04 04:27:02;;;;;;;67.40;40.92;;;51.30;2227.20;;;;;;5071882;28;20116;-72
2022/02/04 04:29:28;;;;;;;60.85;34.90;;;51.30;2227.20;;;;;;5071044;28;20023;-72
2022/02/04 04:31:54;;;;;;;60.00;36.92;;;51.30;2227.20;;;;;;5070609;28;20028;-72
2022/02/04 04:34:20;;;;;;;57.70;35.47;;;51.40;2227.20;;;;;;5070117;28;20083;-72
2022/02/04 04:36:45;;;;;;;60.35;35.78;;;51.40;2227.20;;;;;;5070868;28;20024;-71
2022/02/04 04:39:21;;;;;;;58.55;34.17;;;51.40;2227.20;;;;;;5072307;28;20085;-71
2022/02/04 04:42:06;;;;;;;59.17;35.75;;;51.40;2227.20;;;;;;5070205;28;20024;-72
2022/02/04 05:30:53;;;;;;;46.83;28.70;;;51.20;2227.20;;;;;;5071645;28;20036;-71
2022/02/04 05:33:19;;;;;;;40.95;29.30;;;51.20;2227.20;;;;;;5071753;28;20037;-71
2022/02/04 05:35:45;;;;;;;48.25;29.42;;;51.20;2227.20;;;;;;5070236;28;21052;-71
2022/02/04 05:38:13;;;;;;;45.75;27.67;;;51.20;2227.20;;;;;;5075585;28;20074;-71
2022/02/04 05:40:43;;;;;;;46.83;27.80;;;51.20;2227.20;;;;;;5075805;28;20031;-71
2022/02/04 05:43:29;;;;;;;37.95;24.70;;;51.20;2227.20;;;;;;5075412;28;20017;-72
2022/02/04 05:48:22;;;;;;;49.83;28.48;;;26.50;2201.60;;;;;;5075683;28;20506;-71
2022/02/04 05:50:53;;;;;;;49.90;28.33;;;26.50;2201.60;;;;;;5074745;28;20021;-73
2022/02/04 05:53:24;;;;;;;44.47;28.02;;;26.50;2201.60;;;;;;5075461;28;20104;-72
2022/02/04 06:07:21;;;;;;;46.22;27.88;;;26.50;2201.60;;;;;;4974175;28;20858;-72
2022/02/04 06:23:16;;;;;;;48.35;27.52;;;51.30;2227.20;;;;;;4958563;28;20132;-73
2022/02/04 06:25:43;;;;;;;51.33;28.42;;;51.40;2227.20;;;;;;4956797;28;20051;-72
2022/02/04 06:28:09;;;;;;;43.67;25.55;;;51.40;2227.20;;;;;;4973804;28;20411;-73
2022/02/04 06:30:35;;;;;;;46.53;27.13;;;51.40;2227.20;;;;;;4973662;28;20035;-73
2022/02/04 06:33:01;;;;;;;46.38;26.63;;;51.40;2227.20;;;;;;4977114;28;20041;-73
2022/02/04 06:35:30;;;;;;;45.03;27.42;;;51.50;2227.20;;;;;;5012964;28;20026;-73
2022/02/04 06:37:57;;;;;;;42.22;25.48;;;51.50;2227.20;;;;;;5028272;28;20400;-73
2022/02/04 06:40:22;;;;;;;40.45;24.98;;;51.50;2227.20;;;;;;5069681;28;20055;-73
2022/02/04 06:42:48;;;;;;;45.47;26.20;;;51.60;2227.20;;;;;;5072233;28;20059;-72
2022/02/04 06:45:14;;;;;;;40.30;26.08;;;51.60;2227.20;;;;;;5072798;28;20372;-73
2022/02/04 06:47:41;;;;;;;40.55;24.63;;;51.60;2227.20;;;;;;5073322;28;20104;-73
2022/02/04 06:50:07;;;;;;;53.67;28.05;;;51.60;2227.20;;;;;;5072444;28;20036;-73
2022/02/04 06:52:32;;;;;;;42.42;26.17;;;51.60;2227.20;;;;;;5073945;28;20031;-70
2022/02/04 06:54:58;;;;;;;34.53;22.40;;;51.80;2227.20;;;;;;5062236;28;20025;-73
2022/02/04 06:57:24;;;;;;;49.45;27.17;;;51.90;2227.20;;;;;;5071687;28;20045;-73
2022/02/04 06:59:52;;;;;;;47.78;27.23;;;51.90;2227.20;;;;;;5073652;28;20158;-73
2022/02/04 07:02:20;;;;;;;39.80;25.52;;;51.90;2227.20;;;;;;5072724;28;20047;-73
2022/02/04 07:04:46;;;;;;;43.15;25.67;;;52.00;2227.20;;;;;;5071616;28;20051;-74
2022/02/04 07:07:13;;;;;;;41.72;23.75;;;52.00;2227.20;;;;;;5071997;28;20510;-73
2022/02/04 07:19:58;;;;;;;43.38;24.80;;;76.80;2227.20;;;;;;5071723;28;20036;-73
2022/02/04 07:22:27;;;;;;;38.08;23.65;;;76.80;2227.20;;;;;;5073324;28;20036;-72
2022/02/04 07:24:56;;;;;;;34.88;22.80;;;76.80;2227.20;;;;;;5070324;28;20060;-73
2022/02/04 07:27:26;;;;;;;41.65;25.13;;;76.90;2227.20;;;;;;5073098;28;20494;-73
2022/02/04 07:29:54;;;;;;;39.38;23.58;;;77.00;2227.20;;;;;;5072724;28;20032;-72
2022/02/04 07:42:43;;;;;;;36.47;20.80;;;77.30;2227.20;;;;;;5080548;28;20047;-72
2022/02/04 07:45:09;;;;;;;34.72;19.75;;;77.30;2227.20;;;;;;5079007;28;20398;-73
2022/02/04 07:47:36;;;;;;;27.58;19.73;;;77.40;2227.20;;;;;;5074055;28;20024;-73
2022/02/04 07:50:04;;;;;;;30.83;20.38;;;77.50;2227.20;;;;;;5071555;28;20025;-73
2022/02/04 07:52:30;;;;;;;31.02;18.42;;;77.50;2227.20;;;;;;5076067;28;20086;-74
2022/02/04 07:54:55;;;;;;;32.55;20.15;;;77.50;2227.20;;;;;;5071938;28;20442;-74
2022/02/04 07:57:21;;;;;;;29.70;18.23;;;77.60;2227.20;;;;;;5073507;28;20434;-73
2022/02/04 07:59:47;;;;;;;28.15;18.90;;;77.50;2227.20;;;;;;5074237;28;20024;-73
2022/02/04 08:02:14;;;;;;;32.33;17.90;;;77.60;2227.20;;;;;;5073708;28;20020;-73
2022/02/04 08:04:42;;;;;;;34.42;20.80;;;77.60;2227.20;;;;;;5070795;28;20028;-73
2022/02/04 08:07:15;;;;;;;30.42;19.05;;;77.70;2227.20;;;;;;5076436;28;20502;-73
2022/02/04 08:10:04;;;;;;;34.17;19.75;;;77.70;2227.20;;;;;;5079311;28;20456;-73
2022/02/04 08:15:41;;;;;;;37.17;22.98;;;77.60;2227.20;;;;;;5074157;28;20078;-74
2022/02/04 08:23:53;;;;;;;33.55;22.05;;;77.70;2227.20;;;;;;4989631;28;20134;-75
2022/02/04 08:39:37;;;;;;;35.85;21.33;;;102.70;2227.20;;;;;;4990648;28;20046;-74
2022/02/04 08:50:59;;;;;;;33.63;22.42;;;102.90;2227.20;;;;;;4990409;28;20014;-74
2022/02/04 08:55:30;;;;;;;27.33;19.15;;;103.00;2227.20;;;;;;5073241;28;20033;-74
2022/02/04 09:01:15;;;;;;;31.52;19.90;;;103.20;2227.20;;;;;;5034371;28;20068;-74
2022/02/04 09:06:17;;;;;;;32.97;20.95;;;103.30;2227.20;;;;;;5031084;28;20030;-74
2022/02/04 09:08:48;;;;;;;34.42;19.60;;;128.00;2252.80;;;;;;5034790;28;20021;-74
2022/02/04 09:11:17;;;;;;;28.33;20.40;;;128.00;2252.80;;;;;;5020801;28;20053;-75
2022/02/04 09:19:15;;;;;;;39.72;24.15;;;128.20;2252.80;;;;;;5033886;28;20032;-75
2022/02/04 09:24:13;;;;;;;29.90;19.42;;;128.30;2252.80;;;;;;5034093;28;20034;-74
2022/02/04 09:26:40;;;;;;;33.45;19.98;;;128.40;2252.80;;;;;;5006126;28;20104;-74
2022/02/04 09:29:06;;;;;;;30.55;19.13;;;128.40;2252.80;;;;;;5022790;28;20061;-74
2022/02/04 09:31:33;;;;;;;43.63;25.65;;;128.40;2252.80;;;;;;5014797;28;20030;-74
2022/02/04 09:33:59;;;;;;;46.60;27.85;;;128.70;2252.80;;;;;;5027144;28;20033;-75
2022/02/04 09:36:24;;;;;;;36.25;20.38;;;128.90;2252.80;;;;;;5055571;28;20124;-74
2022/02/04 09:38:50;;;;;;;36.70;22.05;;;128.90;2252.80;;;;;;5076079;28;20036;-75
2022/02/04 09:41:22;;;;;;;34.08;16.48;;;153.60;2252.80;;;;;;5078002;28;20082;-74
2022/02/04 09:43:49;;;;;;;29.10;17.50;;;153.90;2252.80;;;;;;5075358;28;20067;-74
2022/02/04 09:46:16;;;;;;;28.52;18.25;;;154.20;2252.80;;;;;;5077798;28;20119;-74
2022/02/04 09:48:44;;;;;;;23.73;16.35;;;154.40;2252.80;;;;;;5077912;28;20023;-75
2022/02/04 09:51:13;;;;;;;30.23;17.67;;;154.50;2252.80;;;;;;5083249;28;20505;-74
2022/02/04 10:05:34;;;;;;;28.35;18.00;;;179.80;2252.80;;;;;;5075823;28;20418;-75
2022/02/04 10:18:18;;;;;;;39.67;24.38;;;180.00;2252.80;;;;;;5085431;28;20036;-74
2022/02/04 10:20:44;;;;;;;38.70;23.98;;;180.10;2252.80;;;;;;5077742;28;20047;-74
2022/02/04 10:23:10;;;;;;;29.20;20.23;;;205.30;2252.80;;;;;;5078859;28;20743;-74
2022/02/04 10:25:43;;;;;;;32.67;20.35;;;230.50;2252.80;;;;;;5073361;28;20053;-75
2022/02/04 10:28:21;;;;;;;31.52;19.85;;;230.40;2252.80;;;;;;5072646;28;20132;-75
2022/02/04 10:31:05;;;;;;;30.92;20.55;;;230.70;2252.80;;;;;;5084250;28;20475;-75
2022/02/04 10:33:32;;;;;;;35.05;21.73;;;230.40;2252.80;;;;;;5092003;28;20036;-74
2022/02/04 10:35:58;;;;;;;29.88;19.83;;;230.50;2252.80;;;;;;5075587;28;20467;-75
2022/02/04 10:38:38;;;;;;;23.15;17.15;;;230.40;2252.80;;;;;;5076625;28;20035;-75
2022/02/04 10:41:18;;;;;;;31.48;19.65;;;231.20;2252.80;;;;;;5072961;28;20066;-74
2022/02/04 10:59:40;;;;;;;24.50;16.48;;;307.50;1971.20;;;;;;5083649;28;20020;-75
2022/02/04 11:35:11;;;;;;;31.52;20.42;;;358.40;1664.00;;;;;;4988271;28;20069;-73
2022/02/04 11:54:54;;;;;;;30.45;20.50;;;384.10;1612.80;;;;;;5048263;28;20128;-74
2022/02/04 11:57:30;;;;;;;32.33;20.40;;;384.20;1587.20;;;;;;5050293;28;20156;-73
2022/02/04 12:00:20;;;;;;;33.15;19.55;;;384.70;1561.60;;;;;;5033251;28;20033;-74
2022/02/04 12:02:49;;;;;;;33.25;18.83;;;384.30;1587.20;;;;;;5049950;28;20037;-73
2022/02/04 12:05:17;;;;;;;36.72;25.27;;;384.40;1612.80;;;;;;5048860;28;20036;-74
2022/02/04 12:07:48;;;;;;;34.58;22.90;;;384.80;1561.60;;;;;;5050136;28;20435;-75
2022/02/04 12:10:14;;;;;;;36.30;20.67;;;384.80;1561.60;;;;;;5050139;28;20025;-75
2022/02/04 12:13:08;;;;;;;22.67;15.48;;;384.90;1561.60;;;;;;5032676;28;20040;-73
2022/02/04 12:15:37;;;;;;;29.73;19.55;;;384.60;1561.60;;;;;;5047980;28;20087;-74
2022/02/04 12:18:08;;;;;;;27.45;19.23;;;384.90;1561.60;;;;;;5032900;28;20059;-72
2022/02/04 12:23:35;;;;;;;32.65;21.10;;;410.10;1536.00;;;;;;5035530;28;20032;-72
2022/02/04 12:26:10;;;;;;;27.50;18.20;;;409.90;1536.00;;;;;;5055809;28;20109;-74
2022/02/04 12:28:44;;;;;;;25.60;15.27;;;410.10;1536.00;;;;;;5072491;28;20025;-73
2022/02/04 12:31:14;;;;;;;27.73;18.83;;;409.60;1561.60;;;;;;5071236;28;20079;-72
2022/02/04 12:34:24;;;;;;;35.95;20.80;;;384.90;1536.00;;;;;;5072468;28;20487;-73
2022/02/04 12:36:51;;;;;;;31.05;16.67;;;409.70;1561.60;;;;;;5068298;28;20032;-73
2022/02/04 12:39:22;;;;;;;21.85;15.43;;;384.90;1561.60;;;;;;5072467;28;20048;-73
2022/02/04 12:41:56;;;;;;;20.42;14.43;;;384.90;1536.00;;;;;;5072353;28;20099;-73
2022/02/04 12:44:24;;;;;;;24.15;16.88;;;384.30;1561.60;;;;;;5070600;28;20397;-73
2022/02/04 12:47:00;;;;;;;24.58;15.63;;;384.00;1612.80;;;;;;5071637;28;20029;-73
2022/02/04 12:49:28;;;;;;;27.33;15.25;;;333.70;1715.20;;;;;;5070977;28;20024;-73
2022/02/04 12:59:58;;;;;;;24.50;15.98;;;359.10;1664.00;;;;;;5072416;28;20098;-72
2022/02/04 13:02:42;;;;;;;22.38;14.93;;;384.60;1612.80;;;;;;5071992;28;20031;-73
2022/02/04 13:08:47;;;;;;;25.10;17.13;;;358.60;1715.20;;;;;;5071646;28;20075;-73
2022/02/04 13:10:44;;;;;;;24.70;16.35;;;358.60;1740.80;;;;;;5057346;28;20511;-73
2022/02/04 13:13:14;;;;;;;25.00;17.08;;;358.50;1766.40;;;;;;5071128;28;20525;-73
2022/02/04 13:15:42;;;;;;;27.13;16.85;;;333.50;1817.60;;;;;;5065562;28;20074;-73
2022/02/04 13:18:09;;;;;;;27.50;17.45;;;333.30;1920.00;;;;;;5071590;28;20029;-72
2022/02/04 13:20:37;;;;;;;27.75;16.95;;;333.20;1996.80;;;;;;5072829;28;20031;-72
2022/02/04 13:23:14;;;;;;;25.05;16.40;;;332.80;2150.40;;;;;;5081240;28;20036;-73
2022/02/04 13:25:45;;;;;;;26.85;15.38;;;332.80;2252.80;;;;;;5081215;28;20404;-73
2022/02/04 13:28:26;;;;;;;28.80;17.83;;;333.50;2124.80;;;;;;5073735;28;20466;-73
2022/02/04 13:31:11;;;;;;;25.35;15.60;;;358.70;1996.80;;;;;;5082507;28;20025;-74
2022/02/04 13:33:42;;;;;;;21.35;16.15;;;358.60;1996.80;;;;;;5090769;28;20024;-74
2022/02/04 13:36:35;;;;;;;26.67;16.33;;;358.60;2073.60;;;;;;5077836;28;20016;-74
2022/02/04 13:42:22;;;;;;;23.73;15.07;;;358.70;2022.40;;;;;;5021024;28;20028;-74
2022/02/04 13:44:56;;;;;;;26.93;18.07;;;358.90;1971.20;;;;;;5020566;28;20057;-74
2022/02/04 13:47:30;;;;;;;26.15;17.90;;;359.00;1971.20;;;;;;5020973;28;20373;-74
2022/02/04 13:55:29;;;;;;;23.95;17.75;;;333.50;2176.00;;;;;;5031476;28;20155;-74
2022/02/04 13:58:08;;;;;;;;;;;333.30;2099.20;;;;;;5036701;28;20025;-72
2022/02/04 14:03:28;;;;;;;29.90;17.25;;;307.90;2304.00;;;;;;5034197;28;20072;-74
2022/02/04 14:08:45;;;;;;;27.77;16.30;;;307.20;2304.00;;;;;;5035426;28;20037;-74
2022/02/04 14:11:12;;;;;;;25.83;17.90;;;282.50;2278.40;;;;;;5030079;28;20034;-75
2022/02/04 14:13:37;;;;;;;29.98;19.65;;;282.50;2278.40;;;;;;5065180;28;20082;-74
2022/02/04 14:16:06;;;;;;;31.98;19.10;;;282.30;2278.40;;;;;;5082600;28;20017;-74
2022/02/04 14:18:36;;;;;;;36.20;19.73;;;282.30;2278.40;;;;;;5079657;28;20029;-73
2022/02/04 14:21:03;;;;;;;36.83;21.98;;;307.40;2304.00;;;;;;5083837;28;20020;-74
2022/02/04 14:23:29;;;;;;;29.75;18.73;;;308.00;2304.00;;;;;;5082504;28;20371;-73
2022/02/04 14:26:12;;;;;;;37.78;16.98;;;332.80;2329.60;;;;;;5081592;28;20056;-74
2022/02/04 14:31:16;;;;;;;35.28;18.25;;;333.10;2227.20;;;;;;5080486;28;20038;-75
2022/02/04 14:58:34;;;;;;;21.92;15.18;;;307.20;2304.00;;;;;;5077189;28;20390;-74
2022/02/04 15:00:31;;;;;;;25.85;16.33;;;282.00;2278.40;;;;;;5076071;28;20111;-74
2022/02/04 15:05:39;;;;;;;31.65;18.35;;;256.60;2252.80;;;;;;5074543;28;20029;-74
2022/02/04 15:08:10;;;;;;;30.58;16.05;;;256.60;2252.80;;;;;;5076766;28;20050;-75
2022/02/04 15:10:38;;;;;;;40.08;21.13;;;256.60;2252.80;;;;;;5071186;28;20062;-74
2022/02/04 15:13:10;;;;;;;36.67;18.73;;;256.40;2252.80;;;;;;5081905;28;20019;-74
2022/02/04 15:15:35;;;;;;;29.98;17.73;;;256.30;2252.80;;;;;;5084876;28;20424;-74
2022/02/04 15:18:01;;;;;;;31.90;19.92;;;256.40;2252.80;;;;;;5078037;28;20115;-74
2022/02/04 15:20:27;;;;;;;28.27;18.38;;;256.20;2252.80;;;;;;5082377;28;20035;-74
2022/02/04 15:22:53;;;;;;;28.45;18.10;;;256.20;2252.80;;;;;;5072555;28;20507;-74
2022/02/04 15:25:22;;;;;;;34.40;20.17;;;256.10;2252.80;;;;;;5071634;28;20048;-74
2022/02/04 15:28:01;;;;;;;38.00;22.48;;;256.00;2252.80;;;;;;5073488;28;20036;-73
2022/02/04 15:30:32;;;;;;;37.72;24.67;;;231.30;2252.80;;;;;;5072190;28;20069;-73
2022/02/04 15:32:58;;;;;;;39.47;25.25;;;231.20;2252.80;;;;;;5073501;28;20426;-73
2022/02/04 15:35:25;;;;;;;39.33;25.25;;;231.10;2252.80;;;;;;5071550;28;20025;-73
2022/02/04 15:37:50;;;;;;;31.80;21.15;;;230.90;2252.80;;;;;;5072017;28;20515;-74
2022/02/04 15:40:16;;;;;;;37.38;20.52;;;230.80;2252.80;;;;;;5072603;28;20056;-73
2022/02/04 15:42:46;;;;;;;34.10;22.08;;;230.70;2252.80;;;;;;5078509;28;20402;-73
2022/02/04 15:53:14;;;;;;;41.42;25.45;;;205.60;2252.80;;;;;;5083692;28;20067;-74
2022/02/04 15:56:05;;;;;;;40.58;23.80;;;205.50;2252.80;;;;;;5074931;28;20020;-73
2022/02/04 15:58:37;;;;;;;46.63;26.38;;;205.40;2252.80;;;;;;5070307;28;20050;-73
2022/02/04 16:01:22;;;;;;;48.40;29.40;;;205.30;2252.80;;;;;;5071157;28;20130;-74
2022/02/04 16:04:00;;;;;;;52.83;30.17;;;205.20;2252.80;;;;;;5069753;28;20070;-74
2022/02/04 16:06:26;;;;;;;48.03;29.77;;;205.10;2252.80;;;;;;5070163;28;20032;-74
2022/02/04 16:08:55;;;;;;;57.60;33.22;;;205.00;2252.80;;;;;;5072351;28;20031;-75
2022/02/04 16:16:34;;;;;;;64.93;34.78;;;204.90;2252.80;;;;;;5068804;28;20422;-74
2022/02/04 16:19:24;;;;;;;49.42;32.67;;;204.80;2252.80;;;;;;5071801;28;20580;-75
2022/02/04 16:25:04;;;;;;;46.55;25.52;;;180.10;2252.80;;;;;;5070675;28;20149;-74
2022/02/04 16:30:03;;;;;;;41.25;25.40;;;180.00;2252.80;;;;;;5071666;28;20025;-74
2022/02/04 16:32:29;;;;;;;59.30;30.55;;;179.90;2252.80;;;;;;5068928;28;20664;-74
2022/02/04 16:34:56;;;;;;;55.90;27.67;;;179.90;2252.80;;;;;;5071786;28;20804;-74
2022/02/04 16:37:30;;;;;;;62.05;30.85;;;179.80;2252.80;;;;;;5070585;28;20154;-74
2022/02/04 16:39:58;;;;;;;71.45;33.15;;;179.80;2252.80;;;;;;5070937;28;20042;-74
2022/02/04 16:42:24;;;;;;;55.70;33.17;;;179.70;2252.80;;;;;;5068818;28;20025;-74
2022/02/04 16:44:50;;;;;;;55.20;29.95;;;179.70;2252.80;;;;;;5072108;28;20032;-74
2022/02/04 16:47:16;;;;;;;44.47;27.80;;;179.60;2252.80;;;;;;5063741;28;20025;-75
2022/02/04 16:49:42;;;;;;;62.92;31.73;;;179.50;2252.80;;;;;;5068092;28;20505;-74
2022/02/04 16:52:08;;;;;;;61.88;36.30;;;179.50;2252.80;;;;;;5068923;28;20048;-74
2022/02/04 16:54:34;;;;;;;81.80;45.00;;;179.50;2252.80;;;;;;5070126;28;20059;-74
2022/02/04 16:57:02;;;;;;;77.07;40.83;;;179.40;2252.80;;;;;;5071840;28;20055;-74
2022/02/04 16:59:29;;;;;;;68.60;38.95;;;179.30;2252.80;;;;;;5071604;28;20095;-74
2022/02/04 17:01:56;;;;;;;59.40;36.45;;;179.20;2252.80;;;;;;5070985;28;20032;-74
2022/02/04 17:04:22;;;;;;;52.95;31.27;;;179.30;2252.80;;;;;;5069533;28;20012;-74
2022/02/04 17:06:56;;;;;;;51.63;30.95;;;179.20;2252.80;;;;;;5071670;28;20043;-75
2022/02/04 17:09:27;;;;;;;57.60;33.42;;;179.20;2252.80;;;;;;5070008;28;20033;-74
2022/02/04 17:12:01;;;;;;;58.42;33.25;;;154.50;2252.80;;;;;;5069616;28;20497;-74
2022/02/04 17:14:28;;;;;;;52.92;31.10;;;154.40;2252.80;;;;;;5068258;28;20074;-74
2022/02/04 17:16:55;;;;;;;51.40;32.40;;;154.40;2252.80;;;;;;5070720;28;20025;-74
2022/02/04 17:19:25;;;;;;;65.38;43.38;;;154.30;2252.80;;;;;;5080080;28;20463;-74
2022/02/04 17:21:51;;;;;;;70.13;47.67;;;154.30;2252.80;;;;;;5078076;28;20031;-74
2022/02/04 17:24:19;;;;;;;52.17;35.90;;;154.20;2252.80;;;;;;5070016;28;20032;-74
2022/02/04 17:26:45;;;;;;;46.45;28.08;;;154.20;2252.80;;;;;;5071074;28;20024;-73
2022/02/04 17:29:12;;;;;;;36.30;22.50;;;154.20;2252.80;;;;;;5071358;28;20793;-74
2022/02/04 17:31:39;;;;;;;42.08;24.35;;;154.10;2252.80;;;;;;5070057;28;20025;-74
2022/02/04 17:34:06;;;;;;;39.70;24.45;;;154.10;2252.80;;;;;;5074241;28;20016;-73
2022/02/04 17:36:37;;;;;;;36.83;22.00;;;154.10;2252.80;;;;;;5075333;28;20039;-73
2022/02/04 17:39:15;;;;;;;42.53;23.33;;;154.10;2252.80;;;;;;5075535;28;20024;-75
2022/02/04 17:41:41;;;;;;;33.88;21.55;;;154.00;2252.80;;;;;;5074088;28;20040;-74
2022/02/04 17:44:08;;;;;;;31.42;20.73;;;154.00;2252.80;;;;;;5065305;28;20411;-74
2022/02/04 17:46:33;;;;;;;36.45;23.73;;;153.90;2252.80;;;;;;5062428;28;20033;-73
2022/02/04 17:49:10;;;;;;;34.40;21.02;;;153.90;2252.80;;;;;;5064453;28;20050;-73
2022/02/04 17:54:21;;;;;;;34.60;21.15;;;153.80;2252.80;;;;;;5067122;28;20127;-73
2022/02/04 17:57:00;;;;;;;34.17;22.70;;;153.80;2252.80;;;;;;5065972;28;20021;-73
2022/02/04 17:59:48;;;;;;;35.40;23.80;;;153.80;2252.80;;;;;;5084649;28;20135;-73
2022/02/04 18:02:35;;;;;;;38.65;22.30;;;153.70;2252.80;;;;;;5064677;28;20055;-73
2022/02/04 18:07:48;;;;;;;29.40;20.65;;;153.60;2252.80;;;;;;5065650;28;20745;-73
2022/02/04 18:10:14;;;;;;;31.98;20.27;;;153.60;2252.80;;;;;;5074846;28;20493;-74
2022/02/04 18:12:40;;;;;;;32.92;18.63;;;153.60;2252.80;;;;;;5066881;28;20025;-74
2022/02/04 18:15:06;;;;;;;33.53;18.85;;;153.60;2252.80;;;;;;5070037;28;20451;-74
2022/02/04 18:17:32;;;;;;;35.05;19.60;;;128.90;2252.80;;;;;;5064625;28;20380;-73
2022/02/04 18:19:58;;;;;;;28.50;19.30;;;153.60;2252.80;;;;;;5083309;28;20032;-72
2022/02/04 18:22:24;;;;;;;29.67;19.50;;;153.60;2252.80;;;;;;5068545;28;20537;-73
2022/02/04 18:24:49;;;;;;;30.42;17.50;;;153.60;2252.80;;;;;;5069709;28;20048;-72
2022/02/04 18:27:16;;;;;;;32.55;18.85;;;128.90;2252.80;;;;;;5068146;28;20033;-72
2022/02/04 18:29:46;;;;;;;29.80;17.40;;;128.90;2252.80;;;;;;5068668;28;20390;-72
2022/02/04 18:32:13;;;;;;;31.55;17.73;;;128.90;2252.80;;;;;;5070683;28;20494;-71
2022/02/04 18:34:39;;;;;;;34.25;17.83;;;128.90;2252.80;;;;;;5068096;28;20427;-72
2022/02/04 18:37:06;;;;;;;27.02;20.50;;;128.90;2252.80;;;;;;5065718;28;20033;-72
2022/02/04 18:39:53;;;;;;;29.20;17.98;;;128.90;2252.80;;;;;;5076912;28;20037;-73
2022/02/04 18:42:40;;;;;;;33.70;20.05;;;128.90;2252.80;;;;;;5066414;28;20021;-72
2022/02/04 18:45:12;;;;;;;27.92;16.95;;;153.60;2252.80;;;;;;5067578;28;20360;-72
2022/02/04 18:47:57;;;;;;;33.38;20.33;;;128.90;2252.80;;;;;;5066620;28;20102;-73
2022/02/04 18:50:44;;;;;;;35.25;17.65;;;128.90;2252.80;;;;;;5071036;28;20035;-72
2022/02/04 18:53:26;;;;;;;38.25;20.52;;;128.90;2252.80;;;;;;5070331;28;20051;-72
2022/02/04 18:56:12;;;;;;;36.17;20.50;;;128.80;2252.80;;;;;;5067883;28;20027;-72
2022/02/04 18:58:38;;;;;;;41.47;23.48;;;128.80;2252.80;;;;;;5067252;28;20025;-73
2022/02/04 19:01:04;;;;;;;35.00;21.10;;;128.90;2252.80;;;;;;5082116;28;20062;-73
2022/02/04 19:03:42;;;;;;;31.60;19.90;;;128.80;2252.80;;;;;;5065156;28;20037;-73
2022/02/04 19:06:45;;;;;;;32.60;18.98;;;128.90;2252.80;;;;;;5068514;28;20094;-73
2022/02/04 19:09:02;;;;;;;29.17;18.48;;;128.80;2252.80;;;;;;5063039;28;20040;-73
2022/02/04 19:11:36;;;;;;;30.35;18.95;;;128.80;2252.80;;;;;;5068936;28;20025;-74
2022/02/04 19:14:11;;;;;;;34.83;21.10;;;128.80;2252.80;;;;;;5080333;28;20028;-73
2022/02/04 19:24:13;;;;;;;37.28;21.45;;;128.70;2252.80;;;;;;5062840;28;20052;-73